createdAt,value
2023-04-18T00:00:04.338Z,1020.65
2023-04-18T00:01:04.347Z,1020.66
2023-04-18T00:02:04.387Z,1020.67
2023-04-18T00:03:04.971Z,1020.65
2023-04-18T00:04:04.572Z,1020.66
2023-04-18T00:05:04.496Z,1020.65
2023-04-18T00:06:04.286Z,1020.69
2023-04-18T00:07:04.262Z,1020.72
2023-04-18T00:08:04.251Z,1020.69
2023-04-18T00:09:04.274Z,1020.61
2023-04-18T00:10:04.217Z,1020.65
2023-04-18T00:11:04.218Z,1020.66
2023-04-18T00:12:04.208Z,1020.62
2023-04-18T00:13:04.219Z,1020.63
2023-04-18T00:14:04.178Z,1020.63
2023-04-18T00:15:04.800Z,1020.59
2023-04-18T00:16:04.159Z,1020.59
2023-04-18T00:17:04.204Z,1020.65
2023-04-18T00:18:04.232Z,1020.58
2023-04-18T00:19:04.123Z,1020.57
2023-04-18T00:20:04.131Z,1020.58
2023-04-18T00:21:04.151Z,1020.55
2023-04-18T00:22:04.127Z,1020.54
2023-04-18T00:23:04.091Z,1020.56
2023-04-18T00:24:04.069Z,1020.57
2023-04-18T00:25:04.073Z,1020.48
2023-04-18T00:26:04.042Z,1020.52
2023-04-18T00:27:04.038Z,1020.50
2023-04-18T00:28:04.021Z,1020.47
2023-04-18T00:29:04.022Z,1020.47
2023-04-18T00:30:03.997Z,1020.51
2023-04-18T00:31:04.066Z,1020.48
2023-04-18T00:32:03.976Z,1020.51
2023-04-18T00:33:04.001Z,1020.53
2023-04-18T00:34:03.955Z,1020.51
2023-04-18T00:35:03.946Z,1020.50
2023-04-18T00:36:03.990Z,1020.53
2023-04-18T00:37:04.024Z,1020.48
2023-04-18T00:38:03.922Z,1020.47
2023-04-18T00:39:03.942Z,1020.51
2023-04-18T00:40:03.883Z,1020.45
2023-04-18T00:41:03.876Z,1020.47
2023-04-18T00:42:03.869Z,1020.42
2023-04-18T00:43:03.859Z,1020.52
2023-04-18T00:44:03.849Z,1020.52
2023-04-18T00:45:03.825Z,1020.50
2023-04-18T00:46:03.841Z,1020.38
2023-04-18T00:47:03.811Z,1020.50
2023-04-18T00:48:03.845Z,1020.49
2023-04-18T00:49:03.820Z,1020.48
2023-04-18T00:50:03.784Z,1020.48
2023-04-18T00:51:03.763Z,1020.48
2023-04-18T00:52:03.755Z,1020.46
2023-04-18T00:53:03.768Z,1020.45
2023-04-18T00:54:03.758Z,1020.43
2023-04-18T00:55:03.741Z,1020.43
2023-04-18T00:56:03.706Z,1020.44
2023-04-18T00:57:03.715Z,1020.42
2023-04-18T00:58:03.700Z,1020.46
2023-04-18T00:59:03.695Z,1020.44
2023-04-18T01:00:03.663Z,1020.43
2023-04-18T01:01:03.678Z,1020.45
2023-04-18T01:02:03.775Z,1020.43
2023-04-18T01:03:03.897Z,1020.49
2023-04-18T01:04:03.785Z,1020.45
2023-04-18T01:05:03.615Z,1020.43
2023-04-18T01:06:03.600Z,1020.44
2023-04-18T01:07:03.580Z,1020.42
2023-04-18T01:08:03.574Z,1020.46
2023-04-18T01:09:03.582Z,1020.42
2023-04-18T01:10:03.569Z,1020.41
2023-04-18T01:11:03.536Z,1020.46
2023-04-18T01:12:03.555Z,1020.45
2023-04-18T01:13:03.509Z,1020.48
2023-04-18T01:14:03.497Z,1020.51
2023-04-18T01:15:03.512Z,1020.47
2023-04-18T01:16:03.523Z,1020.42
2023-04-18T01:17:03.471Z,1020.41
2023-04-18T01:18:03.538Z,1020.43
2023-04-18T01:19:03.443Z,1020.38
2023-04-18T01:20:03.447Z,1020.39
2023-04-18T01:21:03.470Z,1020.37
2023-04-18T01:22:03.418Z,1020.46
2023-04-18T01:23:03.403Z,1020.40
2023-04-18T01:24:03.387Z,1020.41
2023-04-18T01:25:03.407Z,1020.38
2023-04-18T01:26:03.364Z,1020.39
2023-04-18T01:27:03.417Z,1020.42
2023-04-18T01:28:03.340Z,1020.38
2023-04-18T01:29:03.343Z,1020.36
2023-04-18T01:30:03.330Z,1020.38
2023-04-18T01:31:03.348Z,1020.35
2023-04-18T01:32:03.327Z,1020.34
2023-04-18T01:33:03.296Z,1020.30
2023-04-18T01:34:03.274Z,1020.34
2023-04-18T01:35:03.285Z,1020.33
2023-04-18T01:36:03.258Z,1020.34
2023-04-18T01:37:03.241Z,1020.34
2023-04-18T01:38:03.246Z,1020.32
2023-04-18T01:39:03.224Z,1020.38
2023-04-18T01:40:03.248Z,1020.34
2023-04-18T01:41:03.219Z,1020.29
2023-04-18T01:42:03.187Z,1020.29
2023-04-18T01:43:03.187Z,1020.29
2023-04-18T01:44:03.191Z,1020.35
2023-04-18T01:45:03.173Z,1020.25
2023-04-18T01:46:03.133Z,1020.33
2023-04-18T01:47:03.200Z,1020.37
2023-04-18T01:48:03.126Z,1020.30
2023-04-18T01:49:03.103Z,1020.30
2023-04-18T01:50:03.120Z,1020.31
2023-04-18T01:51:03.090Z,1020.32
2023-04-18T01:52:03.102Z,1020.29
2023-04-18T01:53:03.063Z,1020.29
2023-04-18T01:54:03.052Z,1020.34
2023-04-18T01:55:03.048Z,1020.25
2023-04-18T01:56:03.023Z,1020.26
2023-04-18T01:57:03.076Z,1020.23
2023-04-18T01:58:02.999Z,1020.25
2023-04-18T01:59:02.998Z,1020.27
2023-04-18T02:00:03.003Z,1020.22
2023-04-18T02:01:03.000Z,1020.22
2023-04-18T02:02:03.014Z,1020.24
2023-04-18T02:03:03.059Z,1020.21
2023-04-18T02:04:02.961Z,1020.21
2023-04-18T02:05:02.947Z,1020.16
2023-04-18T02:06:02.909Z,1020.28
2023-04-18T02:07:02.905Z,1020.20
2023-04-18T02:08:02.898Z,1020.18
2023-04-18T02:09:02.903Z,1020.25
2023-04-18T02:10:02.879Z,1020.22
2023-04-18T02:11:02.874Z,1020.28
2023-04-18T02:12:02.847Z,1020.29
2023-04-18T02:13:02.856Z,1020.23
2023-04-18T02:14:02.841Z,1020.26
2023-04-18T02:15:02.818Z,1020.25
2023-04-18T02:16:02.814Z,1020.22
2023-04-18T02:17:02.799Z,1020.19
2023-04-18T02:18:02.825Z,1020.25
2023-04-18T02:19:02.770Z,1020.17
2023-04-18T02:20:02.773Z,1020.18
2023-04-18T02:21:02.749Z,1020.22
2023-04-18T02:22:02.736Z,1020.23
2023-04-18T02:23:02.722Z,1020.20
2023-04-18T02:24:02.748Z,1020.20
2023-04-18T02:25:02.729Z,1020.16
2023-04-18T02:26:02.694Z,1020.18
2023-04-18T02:27:02.677Z,1020.20
2023-04-18T02:28:02.680Z,1020.16
2023-04-18T02:29:02.699Z,1020.19
2023-04-18T02:30:02.657Z,1020.14
2023-04-18T02:31:02.641Z,1020.13
2023-04-18T02:32:02.709Z,1020.13
2023-04-18T02:33:02.661Z,1020.07
2023-04-18T02:34:02.605Z,1020.12
2023-04-18T02:35:02.592Z,1020.18
2023-04-18T02:36:02.598Z,1020.11
2023-04-18T02:37:02.581Z,1020.11
2023-04-18T02:38:02.556Z,1020.09
2023-04-18T02:39:02.536Z,1020.09
2023-04-18T02:40:02.528Z,1020.20
2023-04-18T02:41:02.524Z,1020.05
2023-04-18T02:42:02.516Z,1020.08
2023-04-18T02:43:02.503Z,1020.08
2023-04-18T02:44:02.482Z,1020.12
2023-04-18T02:45:02.623Z,1020.12
2023-04-18T02:46:02.499Z,1020.13
2023-04-18T02:47:02.447Z,1020.17
2023-04-18T02:48:02.514Z,1020.17
2023-04-18T02:49:02.428Z,1020.10
2023-04-18T02:50:02.417Z,1020.15
2023-04-18T02:51:02.408Z,1020.17
2023-04-18T02:52:02.396Z,1020.11
2023-04-18T02:53:02.386Z,1020.07
2023-04-18T02:54:02.382Z,1020.05
2023-04-18T02:55:02.375Z,1020.14
2023-04-18T02:56:02.358Z,1020.16
2023-04-18T02:57:02.417Z,1020.10
2023-04-18T02:58:02.323Z,1020.13
2023-04-18T02:59:02.305Z,1020.16
2023-04-18T03:00:02.310Z,1020.12
2023-04-18T03:01:02.367Z,1020.11
2023-04-18T03:02:02.339Z,1020.11
2023-04-18T03:03:02.371Z,1020.11
2023-04-18T03:04:02.331Z,1020.11
2023-04-18T03:05:02.373Z,1020.14
2023-04-18T03:06:02.282Z,1020.07
2023-04-18T03:07:02.240Z,1020.13
2023-04-18T03:08:02.276Z,1020.08
2023-04-18T03:09:02.196Z,1020.10
2023-04-18T03:10:02.218Z,1020.11
2023-04-18T03:11:02.173Z,1020.14
2023-04-18T03:12:02.208Z,1020.13
2023-04-18T03:13:02.286Z,1020.07
2023-04-18T03:14:02.138Z,1020.04
2023-04-18T03:15:02.121Z,1020.08
2023-04-18T03:16:02.145Z,1020.03
2023-04-18T03:17:02.189Z,1020.10
2023-04-18T03:18:02.152Z,1020.12
2023-04-18T03:19:02.115Z,1020.09
2023-04-18T03:20:02.076Z,1020.05
2023-04-18T03:21:02.103Z,1020.02
2023-04-18T03:22:02.115Z,1020.03
2023-04-18T03:23:02.030Z,1020.06
2023-04-18T03:24:02.038Z,1020.07
2023-04-18T03:25:02.029Z,1020.04
2023-04-18T03:26:02.003Z,1020.06
2023-04-18T03:27:01.993Z,1020.11
2023-04-18T03:28:01.993Z,1020.09
2023-04-18T03:29:01.989Z,1020.10
2023-04-18T03:30:01.973Z,1020.07
2023-04-18T03:31:01.955Z,1020.06
2023-04-18T03:32:01.991Z,1020.05
2023-04-18T03:33:02.032Z,1020.05
2023-04-18T03:34:01.909Z,1020.08
2023-04-18T03:35:01.910Z,1020.10
2023-04-18T03:36:01.910Z,1020.05
2023-04-18T03:37:01.944Z,1020.10
2023-04-18T03:38:01.879Z,1020.12
2023-04-18T03:39:01.853Z,1020.05
2023-04-18T03:40:01.876Z,1020.05
2023-04-18T03:41:01.846Z,1020.07
2023-04-18T03:42:01.826Z,1020.09
2023-04-18T03:43:01.804Z,1020.12
2023-04-18T03:44:01.803Z,1020.09
2023-04-18T03:45:01.822Z,1020.06
2023-04-18T03:46:01.801Z,1020.05
2023-04-18T03:47:01.791Z,1020.11
2023-04-18T03:48:01.878Z,1020.10
2023-04-18T03:49:01.777Z,1020.11
2023-04-18T03:50:01.817Z,1020.12
2023-04-18T03:51:01.732Z,1020.10
2023-04-18T03:52:01.751Z,1020.14
2023-04-18T03:53:01.696Z,1020.15
2023-04-18T03:54:01.688Z,1020.11
2023-04-18T03:55:01.714Z,1020.16
2023-04-18T03:56:01.683Z,1020.13
2023-04-18T03:57:01.659Z,1020.17
2023-04-18T03:58:01.673Z,1020.17
2023-04-18T03:59:01.629Z,1020.17
2023-04-18T04:00:01.623Z,1020.18
2023-04-18T04:01:01.618Z,1020.19
2023-04-18T04:02:01.977Z,1020.21
2023-04-18T04:03:01.820Z,1020.18
2023-04-18T04:04:01.831Z,1020.25
2023-04-18T04:05:01.873Z,1020.28
2023-04-18T04:06:01.581Z,1020.20
2023-04-18T04:07:01.567Z,1020.25
2023-04-18T04:08:01.542Z,1020.22
2023-04-18T04:09:01.526Z,1020.25
2023-04-18T04:10:01.529Z,1020.27
2023-04-18T04:11:01.495Z,1020.21
2023-04-18T04:12:01.495Z,1020.25
2023-04-18T04:13:01.486Z,1020.25
2023-04-18T04:14:01.490Z,1020.22
2023-04-18T04:15:01.453Z,1020.21
2023-04-18T04:16:01.564Z,1020.24
2023-04-18T04:17:01.437Z,1020.30
2023-04-18T04:18:01.518Z,1020.33
2023-04-18T04:19:01.424Z,1020.29
2023-04-18T04:20:01.412Z,1020.28
2023-04-18T04:21:01.405Z,1020.26
2023-04-18T04:22:01.385Z,1020.28
2023-04-18T04:23:01.367Z,1020.30
2023-04-18T04:24:01.405Z,1020.35
2023-04-18T04:25:01.350Z,1020.32
2023-04-18T04:26:01.355Z,1020.31
2023-04-18T04:27:01.319Z,1020.31
2023-04-18T04:28:01.307Z,1020.37
2023-04-18T04:29:01.308Z,1020.35
2023-04-18T04:30:01.284Z,1020.32
2023-04-18T04:31:01.279Z,1020.32
2023-04-18T04:32:01.318Z,1020.31
2023-04-18T04:33:01.310Z,1020.38
2023-04-18T04:34:01.240Z,1020.37
2023-04-18T04:35:01.269Z,1020.31
2023-04-18T04:36:01.270Z,1020.31
2023-04-18T04:37:01.225Z,1020.31
2023-04-18T04:38:01.214Z,1020.37
2023-04-18T04:39:01.179Z,1020.34
2023-04-18T04:40:01.171Z,1020.28
2023-04-18T04:41:01.167Z,1020.33
2023-04-18T04:42:01.147Z,1020.36
2023-04-18T04:43:01.128Z,1020.35
2023-04-18T04:44:01.135Z,1020.38
2023-04-18T04:45:01.160Z,1020.40
2023-04-18T04:46:01.162Z,1020.38
2023-04-18T04:47:01.088Z,1020.41
2023-04-18T04:48:01.107Z,1020.40
2023-04-18T04:49:01.076Z,1020.37
2023-04-18T04:50:01.076Z,1020.41
2023-04-18T04:51:01.081Z,1020.41
2023-04-18T04:52:02.090Z,1020.44
2023-04-18T04:53:01.060Z,1020.46
2023-04-18T04:54:01.014Z,1020.45
2023-04-18T04:55:01.001Z,1020.51
2023-04-18T04:56:01.012Z,1020.39
2023-04-18T04:57:00.974Z,1020.48
2023-04-18T04:58:00.971Z,1020.42
2023-04-18T04:59:00.960Z,1020.53
2023-04-18T05:00:00.997Z,1020.53
2023-04-18T05:01:01.020Z,1020.50
2023-04-18T05:02:00.975Z,1020.53
2023-04-18T05:03:00.985Z,1020.57
2023-04-18T05:04:00.982Z,1020.57
2023-04-18T05:05:00.896Z,1020.58
2023-04-18T05:06:00.902Z,1020.57
2023-04-18T05:07:00.881Z,1020.52
2023-04-18T05:08:00.868Z,1020.54
2023-04-18T05:09:00.890Z,1020.53
2023-04-18T05:10:00.850Z,1020.55
2023-04-18T05:11:00.817Z,1020.56
2023-04-18T05:12:00.817Z,1020.56
2023-04-18T05:13:00.789Z,1020.64
2023-04-18T05:14:00.797Z,1020.66
2023-04-18T05:15:00.787Z,1020.66
2023-04-18T05:16:00.760Z,1020.60
2023-04-18T05:17:00.834Z,1020.64
2023-04-18T05:18:00.788Z,1020.63
2023-04-18T05:19:00.736Z,1020.64
2023-04-18T05:20:00.731Z,1020.65
2023-04-18T05:21:00.702Z,1020.69
2023-04-18T05:22:00.722Z,1020.68
2023-04-18T05:23:00.678Z,1020.75
2023-04-18T05:24:00.669Z,1020.71
2023-04-18T05:25:00.782Z,1020.73
2023-04-18T05:26:00.661Z,1020.74
2023-04-18T05:27:00.638Z,1020.71
2023-04-18T05:28:00.634Z,1020.75
2023-04-18T05:29:07.715Z,1020.72
2023-04-18T05:30:00.607Z,1020.75
2023-04-18T05:31:00.623Z,1020.76
2023-04-18T05:32:00.587Z,1020.68
2023-04-18T05:33:00.645Z,1020.80
2023-04-18T05:34:00.561Z,1020.73
2023-04-18T05:35:00.541Z,1020.77
2023-04-18T05:36:00.537Z,1020.77
2023-04-18T05:37:00.526Z,1020.76
2023-04-18T05:38:00.544Z,1020.78
2023-04-18T05:39:00.511Z,1020.81
2023-04-18T05:40:00.945Z,1020.85
2023-04-18T05:41:00.530Z,1020.79
2023-04-18T05:42:00.473Z,1020.85
2023-04-18T05:43:00.460Z,1020.79
2023-04-18T05:44:05.261Z,1020.81
2023-04-18T05:45:01.523Z,1020.77
2023-04-18T05:46:00.453Z,1020.79
2023-04-18T05:47:00.416Z,1020.80
2023-04-18T05:48:00.437Z,1020.88
2023-04-18T05:49:00.406Z,1020.85
2023-04-18T05:50:00.382Z,1020.89
2023-04-18T05:51:00.373Z,1020.94
2023-04-18T05:52:00.367Z,1020.91
2023-04-18T05:53:00.358Z,1020.93
2023-04-18T05:54:00.337Z,1020.80
2023-04-18T05:55:00.321Z,1020.88
2023-04-18T05:56:00.314Z,1020.91
2023-04-18T05:57:00.905Z,1020.86
2023-04-18T05:58:00.317Z,1020.90
2023-04-18T05:59:00.281Z,1020.91
2023-04-18T06:00:00.294Z,1020.94
2023-04-18T06:01:00.254Z,1020.93
2023-04-18T06:02:00.365Z,1021.00
2023-04-18T06:03:00.425Z,1020.96
2023-04-18T06:04:00.437Z,1020.99
2023-04-18T06:05:00.510Z,1020.94
2023-04-18T06:06:00.303Z,1020.91
2023-04-18T06:07:00.203Z,1020.90
2023-04-18T06:08:00.183Z,1020.93
2023-04-18T06:09:00.172Z,1020.97
2023-04-18T06:10:00.215Z,1020.92
2023-04-18T06:11:00.146Z,1020.95
2023-04-18T06:12:00.156Z,1020.91
2023-04-18T06:13:00.153Z,1020.92
2023-04-18T06:14:00.144Z,1020.91
2023-04-18T06:15:00.138Z,1020.95
2023-04-18T06:16:00.147Z,1020.91
2023-04-18T06:17:00.094Z,1020.92
2023-04-18T06:18:00.184Z,1020.88
2023-04-18T06:19:01.188Z,1020.98
2023-04-18T06:20:00.060Z,1020.91
2023-04-18T06:21:00.030Z,1020.96
2023-04-18T06:22:00.021Z,1020.89
2023-04-18T06:23:00.011Z,1021.06
2023-04-18T06:24:00.054Z,1020.89
2023-04-18T06:24:59.996Z,1020.96
2023-04-18T06:25:59.977Z,1021.04
2023-04-18T06:26:59.962Z,1021.06
2023-04-18T06:27:59.953Z,1021.09
2023-04-18T06:29:00.169Z,1021.17
2023-04-18T06:29:59.961Z,1021.06
2023-04-18T06:30:59.915Z,1021.02
2023-04-18T06:31:59.957Z,1021.07
2023-04-18T06:32:59.931Z,1021.12
2023-04-18T06:33:59.883Z,1021.19
2023-04-18T06:34:59.884Z,1021.11
2023-04-18T06:35:59.866Z,1021.13
2023-04-18T06:36:59.847Z,1021.13
2023-04-18T06:37:59.835Z,1021.13
2023-04-18T06:38:59.839Z,1021.17
2023-04-18T06:39:59.826Z,1021.18
2023-04-18T06:40:59.808Z,1021.19
2023-04-18T06:41:59.809Z,1021.22
2023-04-18T06:42:59.787Z,1021.20
2023-04-18T06:44:04.290Z,1021.17
2023-04-18T06:44:59.784Z,1021.23
2023-04-18T06:45:59.838Z,1021.26
2023-04-18T06:46:59.754Z,1021.30
2023-04-18T06:47:59.792Z,1021.29
2023-04-18T06:48:59.746Z,1021.26
2023-04-18T06:49:59.702Z,1021.26
2023-04-18T06:50:59.700Z,1021.28
2023-04-18T06:51:59.704Z,1021.26
2023-04-18T06:52:59.663Z,1021.29
2023-04-18T06:53:59.652Z,1021.36
2023-04-18T06:54:59.654Z,1021.28
2023-04-18T06:55:59.654Z,1021.30
2023-04-18T06:56:59.667Z,1021.34
2023-04-18T06:57:59.621Z,1021.28
2023-04-18T06:58:59.615Z,1021.34
2023-04-18T06:59:59.598Z,1021.34
2023-04-18T07:00:59.701Z,1021.35
2023-04-18T07:01:59.599Z,1021.35
2023-04-18T07:02:59.674Z,1021.36
2023-04-18T07:03:59.598Z,1021.28
2023-04-18T07:04:59.550Z,1021.33
2023-04-18T07:05:59.519Z,1021.36
2023-04-18T07:06:59.513Z,1021.50
2023-04-18T07:07:59.531Z,1021.55
2023-04-18T07:08:59.484Z,1021.55
2023-04-18T07:09:59.491Z,1021.50
2023-04-18T07:10:59.463Z,1021.48
2023-04-18T07:11:59.459Z,1021.48
2023-04-18T07:12:59.444Z,1021.46
2023-04-18T07:13:59.463Z,1021.55
2023-04-18T07:14:59.425Z,1021.53
2023-04-18T07:15:59.429Z,1021.48
2023-04-18T07:16:59.475Z,1021.44
2023-04-18T07:17:59.409Z,1021.49
2023-04-18T07:18:59.384Z,1021.52
2023-04-18T07:19:59.372Z,1021.49
2023-04-18T07:20:59.353Z,1021.48
2023-04-18T07:21:59.355Z,1021.51
2023-04-18T07:22:59.333Z,1021.54
2023-04-18T07:23:59.316Z,1021.58
2023-04-18T07:24:59.329Z,1021.51
2023-04-18T07:25:59.291Z,1021.51
2023-04-18T07:26:59.293Z,1021.49
2023-04-18T07:27:59.273Z,1021.60
2023-04-18T07:28:59.253Z,1021.53
2023-04-18T07:29:59.250Z,1021.52
2023-04-18T07:30:59.322Z,1021.58
2023-04-18T07:31:59.225Z,1021.55
2023-04-18T07:32:59.304Z,1021.60
2023-04-18T07:33:59.222Z,1021.54
2023-04-18T07:34:59.197Z,1021.52
2023-04-18T07:35:59.199Z,1021.57
2023-04-18T07:36:59.183Z,1021.55
2023-04-18T07:37:59.156Z,1021.50
2023-04-18T07:38:59.149Z,1021.63
2023-04-18T07:39:59.146Z,1021.63
2023-04-18T07:40:59.130Z,1021.63
2023-04-18T07:41:59.128Z,1021.65
2023-04-18T07:42:59.111Z,1021.65
2023-04-18T07:43:59.094Z,1021.55
2023-04-18T07:44:59.079Z,1021.61
2023-04-18T07:45:59.127Z,1021.59
2023-04-18T07:46:59.079Z,1021.55
2023-04-18T07:47:59.417Z,1021.55
2023-04-18T07:48:59.209Z,1021.61
2023-04-18T07:49:59.022Z,1021.60
2023-04-18T07:50:59.026Z,1021.49
2023-04-18T07:51:59.016Z,1021.59
2023-04-18T07:52:59.022Z,1021.54
2023-04-18T07:53:58.972Z,1021.56
2023-04-18T07:54:58.979Z,1021.56
2023-04-18T07:55:58.951Z,1021.52
2023-04-18T07:56:58.986Z,1021.50
2023-04-18T07:57:58.954Z,1021.57
2023-04-18T07:58:58.929Z,1021.60
2023-04-18T07:59:58.917Z,1021.60
2023-04-18T08:00:58.904Z,1021.58
2023-04-18T08:01:58.917Z,1021.68
2023-04-18T08:02:58.960Z,1021.62
2023-04-18T08:03:58.983Z,1021.59
2023-04-18T08:04:59.034Z,1021.51
2023-04-18T08:05:58.850Z,1021.70
2023-04-18T08:06:58.835Z,1021.70
2023-04-18T08:07:58.838Z,1021.70
2023-04-18T08:08:58.812Z,1021.80
2023-04-18T08:09:58.823Z,1021.71
2023-04-18T08:10:58.797Z,1021.82
2023-04-18T08:11:58.777Z,1021.88
2023-04-18T08:12:58.778Z,1021.86
2023-04-18T08:13:58.748Z,1021.84
2023-04-18T08:14:58.753Z,1021.81
2023-04-18T08:15:58.792Z,1021.87
2023-04-18T08:16:58.719Z,1021.86
2023-04-18T08:17:58.773Z,1021.90
2023-04-18T08:18:58.707Z,1021.88
2023-04-18T08:19:58.707Z,1021.89
2023-04-18T08:20:58.713Z,1021.87
2023-04-18T08:21:58.665Z,1021.88
2023-04-18T08:23:06.783Z,1021.88
2023-04-18T08:23:59.652Z,1021.82
2023-04-18T08:25:04.370Z,1021.90
2023-04-18T08:25:59.634Z,1021.90
2023-04-18T08:26:58.608Z,1021.89
2023-04-18T08:27:58.591Z,1021.84
2023-04-18T08:28:58.601Z,1021.87
2023-04-18T08:29:58.587Z,1021.86
2023-04-18T08:30:58.580Z,1021.86
2023-04-18T08:31:58.628Z,1021.95
2023-04-18T08:32:58.560Z,1021.93
2023-04-18T08:33:58.528Z,1021.87
2023-04-18T08:34:58.560Z,1021.82
2023-04-18T08:35:58.506Z,1021.82
2023-04-18T08:36:58.521Z,1021.74
2023-04-18T08:37:58.484Z,1021.74
2023-04-18T08:38:58.472Z,1021.78
2023-04-18T08:39:58.472Z,1021.76
2023-04-18T08:40:58.476Z,1021.75
2023-04-18T08:41:58.435Z,1021.73
2023-04-18T08:42:58.425Z,1021.76
2023-04-18T08:43:58.411Z,1021.77
2023-04-18T08:44:58.406Z,1021.78
2023-04-18T08:45:58.448Z,1021.78
2023-04-18T08:46:58.391Z,1021.76
2023-04-18T08:47:58.400Z,1021.72
2023-04-18T08:48:58.361Z,1021.68
2023-04-18T08:49:58.353Z,1021.63
2023-04-18T08:50:58.367Z,1021.71
2023-04-18T08:51:58.335Z,1021.79
2023-04-18T08:52:58.401Z,1021.87
2023-04-18T08:53:58.298Z,1021.76
2023-04-18T08:54:58.288Z,1021.79
2023-04-18T08:55:58.298Z,1021.92
2023-04-18T08:56:58.275Z,1021.85
2023-04-18T08:57:58.268Z,1021.84
2023-04-18T08:58:58.258Z,1021.80
2023-04-18T08:59:58.242Z,1021.80
2023-04-18T09:00:58.266Z,1021.82
2023-04-18T09:01:58.239Z,1021.83
2023-04-18T09:02:58.294Z,1021.78
2023-04-18T09:03:58.287Z,1021.80
2023-04-18T09:04:58.182Z,1021.81
2023-04-18T09:05:58.177Z,1021.84
2023-04-18T09:06:58.158Z,1021.80
2023-04-18T09:07:58.144Z,1021.76
2023-04-18T09:08:58.160Z,1021.85
2023-04-18T09:09:58.140Z,1021.89
2023-04-18T09:10:58.103Z,1021.79
2023-04-18T09:11:58.103Z,1021.81
2023-04-18T09:12:58.090Z,1021.78
2023-04-18T09:13:58.075Z,1021.78
2023-04-18T09:14:58.065Z,1021.73
2023-04-18T09:15:58.049Z,1021.75
2023-04-18T09:16:58.125Z,1021.74
2023-04-18T09:17:58.205Z,1021.76
2023-04-18T09:18:58.036Z,1021.74
2023-04-18T09:19:58.014Z,1021.79
2023-04-18T09:20:57.997Z,1021.74
2023-04-18T09:21:58.010Z,1021.75
2023-04-18T09:22:58.017Z,1021.69
2023-04-18T09:23:57.969Z,1021.77
2023-04-18T09:24:57.981Z,1021.80
2023-04-18T09:25:57.941Z,1021.76
2023-04-18T09:26:57.936Z,1021.69
2023-04-18T09:27:57.916Z,1021.80
2023-04-18T09:28:57.904Z,1021.84
2023-04-18T09:29:58.171Z,1021.73
2023-04-18T09:30:57.913Z,1021.76
2023-04-18T09:31:57.869Z,1021.80
2023-04-18T09:32:57.916Z,1021.81
2023-04-18T09:33:57.857Z,1021.77
2023-04-18T09:34:57.853Z,1021.70
2023-04-18T09:35:57.837Z,1021.80
2023-04-18T09:36:58.015Z,1021.80
2023-04-18T09:37:57.805Z,1021.78
2023-04-18T09:38:57.808Z,1021.80
2023-04-18T09:39:57.799Z,1021.84
2023-04-18T09:40:57.831Z,1021.84
2023-04-18T09:41:57.769Z,1021.78
2023-04-18T09:42:57.752Z,1021.80
2023-04-18T09:43:57.736Z,1021.91
2023-04-18T09:44:57.748Z,1021.84
2023-04-18T09:45:57.789Z,1021.81
2023-04-18T09:46:57.710Z,1021.77
2023-04-18T09:47:57.719Z,1021.80
2023-04-18T09:48:57.683Z,1021.75
2023-04-18T09:49:57.668Z,1021.76
2023-04-18T09:50:57.673Z,1021.74
2023-04-18T09:51:57.654Z,1021.78
2023-04-18T09:52:57.650Z,1021.77
2023-04-18T09:53:57.622Z,1021.75
2023-04-18T09:54:57.618Z,1021.68
2023-04-18T09:55:57.952Z,1021.68
2023-04-18T09:56:57.632Z,1021.72
2023-04-18T09:57:57.587Z,1021.71
2023-04-18T09:58:57.576Z,1021.65
2023-04-18T09:59:57.556Z,1021.70
2023-04-18T10:00:57.549Z,1021.70
2023-04-18T10:01:57.666Z,1021.62
2023-04-18T10:02:57.964Z,1021.66
2023-04-18T10:03:57.684Z,1021.69
2023-04-18T10:04:57.585Z,1021.73
2023-04-18T10:05:57.992Z,1021.74
2023-04-18T10:06:57.476Z,1021.75
2023-04-18T10:07:57.492Z,1021.77
2023-04-18T10:08:57.451Z,1021.75
2023-04-18T10:09:57.442Z,1021.77
2023-04-18T10:10:57.439Z,1021.72
2023-04-18T10:11:57.439Z,1021.77
2023-04-18T10:12:57.544Z,1021.66
2023-04-18T10:13:57.394Z,1021.74
2023-04-18T10:14:57.396Z,1021.73
2023-04-18T10:15:57.432Z,1021.75
2023-04-18T10:16:57.389Z,1021.65
2023-04-18T10:18:57.356Z,1021.64
2023-04-18T10:19:57.328Z,1021.63
2023-04-18T10:20:57.330Z,1021.65
2023-04-18T10:21:57.324Z,1021.73
2023-04-18T10:22:57.332Z,1021.70
2023-04-18T10:23:57.301Z,1021.68
2023-04-18T10:24:57.272Z,1021.61
2023-04-18T10:25:57.278Z,1021.59
2023-04-18T10:26:57.256Z,1021.52
2023-04-18T10:27:57.253Z,1021.53
2023-04-18T10:28:57.468Z,1021.55
2023-04-18T10:29:57.240Z,1021.54
2023-04-18T10:30:57.341Z,1021.50
2023-04-18T10:31:57.418Z,1021.59
2023-04-18T10:32:57.211Z,1021.48
2023-04-18T10:34:57.171Z,1021.54
2023-04-18T10:35:57.174Z,1021.55
2023-04-18T10:36:57.149Z,1021.54
2023-04-18T10:37:57.134Z,1021.46
2023-04-18T10:38:57.124Z,1021.53
2023-04-18T10:39:57.123Z,1021.53
2023-04-18T10:40:57.121Z,1021.56
2023-04-18T10:41:57.081Z,1021.52
2023-04-18T10:42:57.065Z,1021.51
2023-04-18T10:43:57.068Z,1021.53
2023-04-18T10:44:57.117Z,1021.67
2023-04-18T10:45:57.040Z,1021.67
2023-04-18T10:46:57.066Z,1021.56
2023-04-18T10:47:57.056Z,1021.57
2023-04-18T10:48:57.032Z,1021.52
2023-04-18T10:49:56.997Z,1021.62
2023-04-18T10:50:57.000Z,1021.49
2023-04-18T10:51:56.966Z,1021.61
2023-04-18T10:52:56.953Z,1021.54
2023-04-18T10:53:56.945Z,1021.53
2023-04-18T10:54:59.000Z,1021.50
2023-04-18T10:55:56.921Z,1021.46
2023-04-18T10:56:56.927Z,1021.49
2023-04-18T10:57:56.898Z,1021.52
2023-04-18T10:58:56.891Z,1021.50
2023-04-18T10:59:56.912Z,1021.47
2023-04-18T11:00:56.937Z,1021.57
2023-04-18T11:01:56.890Z,1021.48
2023-04-18T11:02:56.951Z,1021.46
2023-04-18T11:03:56.909Z,1021.40
2023-04-18T11:04:56.817Z,1021.45
2023-04-18T11:05:56.809Z,1021.41
2023-04-18T11:06:56.796Z,1021.48
2023-04-18T11:07:56.802Z,1021.48
2023-04-18T11:08:56.773Z,1021.45
2023-04-18T11:09:56.769Z,1021.43
2023-04-18T11:10:56.759Z,1021.44
2023-04-18T11:11:56.740Z,1021.43
2023-04-18T11:12:56.804Z,1021.47
2023-04-18T11:13:56.725Z,1021.42
2023-04-18T11:14:56.701Z,1021.48
2023-04-18T11:15:56.702Z,1021.42
2023-04-18T11:16:56.724Z,1021.46
2023-04-18T11:17:56.713Z,1021.39
2023-04-18T11:18:56.672Z,1021.46
2023-04-18T11:19:56.654Z,1021.39
2023-04-18T11:20:56.652Z,1021.38
2023-04-18T11:21:56.636Z,1021.38
2023-04-18T11:22:56.617Z,1021.33
2023-04-18T11:23:56.607Z,1021.35
2023-04-18T11:24:56.604Z,1021.41
2023-04-18T11:25:56.692Z,1021.38
2023-04-18T11:26:56.564Z,1021.40
2023-04-18T11:27:56.577Z,1021.38
2023-04-18T11:28:56.557Z,1021.32
2023-04-18T11:30:03.627Z,1021.36
2023-04-18T11:30:56.533Z,1021.38
2023-04-18T11:31:58.501Z,1021.32
2023-04-18T11:32:56.663Z,1021.37
2023-04-18T11:33:56.532Z,1021.39
2023-04-18T11:34:56.485Z,1021.34
2023-04-18T11:35:56.465Z,1021.37
2023-04-18T11:36:56.457Z,1021.38
2023-04-18T11:37:56.446Z,1021.35
2023-04-18T11:38:56.436Z,1021.36
2023-04-18T11:39:56.433Z,1021.26
2023-04-18T11:40:56.445Z,1021.35
2023-04-18T11:41:56.420Z,1021.37
2023-04-18T11:42:56.397Z,1021.43
2023-04-18T11:43:56.379Z,1021.40
2023-04-18T11:44:56.364Z,1021.39
2023-04-18T11:45:56.531Z,1021.37
2023-04-18T11:46:56.350Z,1021.38
2023-04-18T11:47:56.412Z,1021.36
2023-04-18T11:48:56.352Z,1021.40
2023-04-18T11:49:57.179Z,1021.40
2023-04-18T11:50:56.303Z,1021.34
2023-04-18T11:51:56.294Z,1021.39
2023-04-18T11:52:56.269Z,1021.36
2023-04-18T11:53:56.257Z,1021.37
2023-04-18T11:54:56.256Z,1021.34
2023-04-18T11:55:56.245Z,1021.32
2023-04-18T11:56:56.243Z,1021.34
2023-04-18T11:57:56.233Z,1021.37
2023-04-18T11:58:56.202Z,1021.41
2023-04-18T11:59:56.201Z,1021.32
2023-04-18T12:00:56.192Z,1021.38
2023-04-18T12:01:58.549Z,1021.36
2023-04-18T12:02:56.333Z,1021.40
2023-04-18T12:03:56.378Z,1021.34
2023-04-18T12:04:56.651Z,1021.43
2023-04-18T12:05:56.290Z,1021.31
2023-04-18T12:06:56.110Z,1021.35